sensor_id;sensor_type;location;lat;lon;timestamp;pressure;altitude;pressure_sealevel;temperature;humidity
51315;BME280;65787;59.922;10.742;2023-08-24T00:01:48;100488.31;;;26.53;34.14
51315;BME280;65787;59.922;10.742;2023-08-24T00:04:14;100490.84;;;26.50;34.41
51315;BME280;65787;59.922;10.742;2023-08-24T00:06:39;100492.34;;;26.42;34.09
51315;BME280;65787;59.922;10.742;2023-08-24T00:09:04;100486.63;;;26.38;34.12
51315;BME280;65787;59.922;10.742;2023-08-24T00:11:31;100500.75;;;26.32;34.58
51315;BME280;65787;59.922;10.742;2023-08-24T00:13:56;100499.13;;;26.31;34.13
51315;BME280;65787;59.922;10.742;2023-08-24T00:16:21;100502.75;;;26.26;34.42
51315;BME280;65787;59.922;10.742;2023-08-24T00:18:46;100503.09;;;26.24;34.33
51315;BME280;65787;59.922;10.742;2023-08-24T00:21:15;100501.28;;;26.15;34.45
51315;BME280;65787;59.922;10.742;2023-08-24T00:23:47;100507.41;;;26.12;34.25
51315;BME280;65787;59.922;10.742;2023-08-24T00:26:18;100500.84;;;26.07;34.18
51315;BME280;65787;59.922;10.742;2023-08-24T00:28:43;100499.84;;;25.98;34.56
51315;BME280;65787;59.922;10.742;2023-08-24T00:31:08;100494.44;;;25.93;34.66
51315;BME280;65787;59.922;10.742;2023-08-24T00:33:33;100497.75;;;25.90;35.59
51315;BME280;65787;59.922;10.742;2023-08-24T00:36:00;100497.00;;;25.84;34.81
51315;BME280;65787;59.922;10.742;2023-08-24T00:38:25;100486.91;;;25.80;34.68
51315;BME280;65787;59.922;10.742;2023-08-24T00:40:51;100493.50;;;25.79;34.80
51315;BME280;65787;59.922;10.742;2023-08-24T00:43:18;100495.50;;;25.73;34.99
51315;BME280;65787;59.922;10.742;2023-08-24T00:45:43;100504.63;;;25.68;34.78
51315;BME280;65787;59.922;10.742;2023-08-24T00:48:09;100506.56;;;25.68;35.29
51315;BME280;65787;59.922;10.742;2023-08-24T00:50:34;100507.06;;;25.70;34.65
51315;BME280;65787;59.922;10.742;2023-08-24T00:53:00;100501.34;;;25.66;35.07
51315;BME280;65787;59.922;10.742;2023-08-24T00:55:27;100502.19;;;25.67;34.75
51315;BME280;65787;59.922;10.742;2023-08-24T00:57:52;100505.28;;;25.60;35.30
51315;BME280;65787;59.922;10.742;2023-08-24T01:00:18;100496.28;;;25.55;35.08
51315;BME280;65787;59.922;10.742;2023-08-24T01:02:43;100508.31;;;25.59;34.78
51315;BME280;65787;59.922;10.742;2023-08-24T01:05:09;100492.94;;;25.58;34.74
51315;BME280;65787;59.922;10.742;2023-08-24T01:07:34;100498.25;;;25.49;35.21
51315;BME280;65787;59.922;10.742;2023-08-24T01:10:01;100495.81;;;25.47;35.25
51315;BME280;65787;59.922;10.742;2023-08-24T01:12:32;100497.13;;;25.50;34.98
51315;BME280;65787;59.922;10.742;2023-08-24T01:17:27;100501.59;;;25.46;34.91
51315;BME280;65787;59.922;10.742;2023-08-24T01:19:55;100504.94;;;25.43;35.03
51315;BME280;65787;59.922;10.742;2023-08-24T01:22:31;100511.25;;;25.43;35.74
51315;BME280;65787;59.922;10.742;2023-08-24T01:27:22;100511.66;;;25.56;35.60
51315;BME280;65787;59.922;10.742;2023-08-24T01:29:48;100516.34;;;25.55;35.16
51315;BME280;65787;59.922;10.742;2023-08-24T01:32:14;100515.09;;;25.42;36.79
51315;BME280;65787;59.922;10.742;2023-08-24T01:34:39;100516.00;;;25.38;35.95
51315;BME280;65787;59.922;10.742;2023-08-24T01:37:05;100518.16;;;25.41;35.97
51315;BME280;65787;59.922;10.742;2023-08-24T01:39:37;100513.75;;;25.40;35.35
51315;BME280;65787;59.922;10.742;2023-08-24T01:42:05;100511.44;;;25.28;36.24
51315;BME280;65787;59.922;10.742;2023-08-24T01:44:35;100508.69;;;25.28;36.13
51315;BME280;65787;59.922;10.742;2023-08-24T01:47:01;100510.59;;;25.27;35.84
51315;BME280;65787;59.922;10.742;2023-08-24T01:49:28;100509.25;;;25.25;35.21
51315;BME280;65787;59.922;10.742;2023-08-24T01:51:54;100515.28;;;25.22;35.54
51315;BME280;65787;59.922;10.742;2023-08-24T01:54:19;100516.47;;;25.16;35.47
51315;BME280;65787;59.922;10.742;2023-08-24T01:56:45;100515.94;;;25.14;34.88
51315;BME280;65787;59.922;10.742;2023-08-24T01:59:10;100520.63;;;25.13;34.98
51315;BME280;65787;59.922;10.742;2023-08-24T02:01:35;100515.44;;;25.06;34.48
51315;BME280;65787;59.922;10.742;2023-08-24T02:04:01;100525.63;;;25.06;34.81
51315;BME280;65787;59.922;10.742;2023-08-24T02:06:26;100517.44;;;25.01;34.65
51315;BME280;65787;59.922;10.742;2023-08-24T02:08:52;100518.47;;;25.05;34.86
51315;BME280;65787;59.922;10.742;2023-08-24T02:11:17;100514.44;;;24.97;34.82
51315;BME280;65787;59.922;10.742;2023-08-24T02:13:43;100533.66;;;24.97;34.71
51315;BME280;65787;59.922;10.742;2023-08-24T02:16:08;100528.22;;;24.58;36.06
51315;BME280;65787;59.922;10.742;2023-08-24T02:18:34;100524.72;;;24.42;36.46
51315;BME280;65787;59.922;10.742;2023-08-24T02:20:59;100526.09;;;24.44;36.55
51315;BME280;65787;59.922;10.742;2023-08-24T02:23:24;100530.44;;;24.50;36.38
51315;BME280;65787;59.922;10.742;2023-08-24T02:25:50;100532.06;;;24.57;36.03
51315;BME280;65787;59.922;10.742;2023-08-24T02:28:15;100525.13;;;24.64;36.11
51315;BME280;65787;59.922;10.742;2023-08-24T02:30:40;100529.75;;;24.74;36.13
51315;BME280;65787;59.922;10.742;2023-08-24T02:33:05;100535.19;;;24.79;35.40
51315;BME280;65787;59.922;10.742;2023-08-24T02:35:31;100535.97;;;24.85;35.39
51315;BME280;65787;59.922;10.742;2023-08-24T02:37:56;100539.34;;;24.77;35.37
51315;BME280;65787;59.922;10.742;2023-08-24T02:40:22;100538.19;;;24.83;34.91
51315;BME280;65787;59.922;10.742;2023-08-24T02:42:47;100545.34;;;24.84;35.36
51315;BME280;65787;59.922;10.742;2023-08-24T02:45:12;100550.47;;;24.90;34.71
51315;BME280;65787;59.922;10.742;2023-08-24T02:47:38;100552.13;;;24.91;34.77
51315;BME280;65787;59.922;10.742;2023-08-24T02:50:04;100552.94;;;24.92;34.86
51315;BME280;65787;59.922;10.742;2023-08-24T02:52:31;100540.38;;;25.15;34.18
51315;BME280;65787;59.922;10.742;2023-08-24T02:54:56;100537.63;;;25.15;33.77
51315;BME280;65787;59.922;10.742;2023-08-24T02:57:21;100539.63;;;25.09;33.73
51315;BME280;65787;59.922;10.742;2023-08-24T02:59:47;100545.41;;;25.08;34.20
51315;BME280;65787;59.922;10.742;2023-08-24T03:02:12;100535.06;;;24.95;34.20
51315;BME280;65787;59.922;10.742;2023-08-24T03:04:37;100538.97;;;24.88;33.73
51315;BME280;65787;59.922;10.742;2023-08-24T03:07:03;100535.44;;;24.83;34.12
51315;BME280;65787;59.922;10.742;2023-08-24T03:09:28;100538.78;;;24.80;34.35
51315;BME280;65787;59.922;10.742;2023-08-24T03:11:53;100524.78;;;24.76;34.20
51315;BME280;65787;59.922;10.742;2023-08-24T03:14:19;100529.53;;;24.65;34.84
51315;BME280;65787;59.922;10.742;2023-08-24T03:16:44;100533.13;;;24.61;34.33
51315;BME280;65787;59.922;10.742;2023-08-24T03:19:09;100533.75;;;24.52;34.73
51315;BME280;65787;59.922;10.742;2023-08-24T03:21:36;100532.69;;;24.43;34.56
51315;BME280;65787;59.922;10.742;2023-08-24T03:24:01;100533.78;;;24.42;35.03
51315;BME280;65787;59.922;10.742;2023-08-24T03:26:29;100534.66;;;24.38;35.05
51315;BME280;65787;59.922;10.742;2023-08-24T03:28:54;100542.13;;;24.27;35.60
51315;BME280;65787;59.922;10.742;2023-08-24T03:31:20;100550.81;;;23.89;36.54
51315;BME280;65787;59.922;10.742;2023-08-24T03:33:45;100544.50;;;23.78;36.69
51315;BME280;65787;59.922;10.742;2023-08-24T03:36:11;100543.44;;;23.85;36.89
51315;BME280;65787;59.922;10.742;2023-08-24T03:38:36;100547.53;;;23.92;37.15
51315;BME280;65787;59.922;10.742;2023-08-24T03:41:05;100551.06;;;23.98;37.18
51315;BME280;65787;59.922;10.742;2023-08-24T03:43:31;100554.00;;;24.07;36.91
51315;BME280;65787;59.922;10.742;2023-08-24T03:45:58;100558.34;;;24.18;36.83
51315;BME280;65787;59.922;10.742;2023-08-24T03:48:23;100551.47;;;24.26;36.54
51315;BME280;65787;59.922;10.742;2023-08-24T03:50:49;100551.72;;;24.29;36.57
51315;BME280;65787;59.922;10.742;2023-08-24T03:53:14;100559.34;;;24.38;36.48
51315;BME280;65787;59.922;10.742;2023-08-24T03:55:40;100555.72;;;24.47;36.22
51315;BME280;65787;59.922;10.742;2023-08-24T03:58:05;100564.63;;;24.73;35.06
51315;BME280;65787;59.922;10.742;2023-08-24T04:00:30;100565.94;;;24.81;34.83
51315;BME280;65787;59.922;10.742;2023-08-24T04:02:56;100572.03;;;24.78;34.49
51315;BME280;65787;59.922;10.742;2023-08-24T04:05:21;100571.53;;;24.71;34.42
51315;BME280;65787;59.922;10.742;2023-08-24T04:07:46;100574.53;;;24.69;35.31
51315;BME280;65787;59.922;10.742;2023-08-24T04:10:12;100573.75;;;24.69;35.35
51315;BME280;65787;59.922;10.742;2023-08-24T04:12:37;100578.50;;;24.53;35.48
51315;BME280;65787;59.922;10.742;2023-08-24T04:15:03;100583.19;;;24.42;35.26
51315;BME280;65787;59.922;10.742;2023-08-24T04:17:29;100580.22;;;24.39;35.59
51315;BME280;65787;59.922;10.742;2023-08-24T04:19:55;100582.38;;;24.42;34.75
51315;BME280;65787;59.922;10.742;2023-08-24T04:22:20;100576.97;;;24.31;35.37
51315;BME280;65787;59.922;10.742;2023-08-24T04:24:45;100584.41;;;24.26;34.85
51315;BME280;65787;59.922;10.742;2023-08-24T04:27:10;100591.00;;;24.20;35.28
51315;BME280;65787;59.922;10.742;2023-08-24T04:29:36;100586.84;;;24.27;35.76
51315;BME280;65787;59.922;10.742;2023-08-24T04:32:02;100591.50;;;24.32;35.75
51315;BME280;65787;59.922;10.742;2023-08-24T04:34:27;100589.06;;;24.25;35.57
51315;BME280;65787;59.922;10.742;2023-08-24T04:36:53;100590.75;;;24.16;35.70
51315;BME280;65787;59.922;10.742;2023-08-24T04:39:19;100590.53;;;24.07;35.80
51315;BME280;65787;59.922;10.742;2023-08-24T04:41:45;100594.38;;;24.01;35.60
51315;BME280;65787;59.922;10.742;2023-08-24T04:44:10;100598.44;;;24.09;35.79
51315;BME280;65787;59.922;10.742;2023-08-24T04:46:35;100592.75;;;24.05;36.15
51315;BME280;65787;59.922;10.742;2023-08-24T04:49:01;100588.34;;;24.04;35.82
51315;BME280;65787;59.922;10.742;2023-08-24T04:51:26;100599.59;;;23.98;35.76
51315;BME280;65787;59.922;10.742;2023-08-24T04:53:53;100601.81;;;23.95;35.90
51315;BME280;65787;59.922;10.742;2023-08-24T04:56:18;100604.81;;;23.94;36.11
51315;BME280;65787;59.922;10.742;2023-08-24T04:58:54;100603.75;;;23.90;34.92
51315;BME280;65787;59.922;10.742;2023-08-24T05:01:20;100603.47;;;23.86;35.13
51315;BME280;65787;59.922;10.742;2023-08-24T05:03:45;100612.56;;;23.87;35.18
51315;BME280;65787;59.922;10.742;2023-08-24T05:06:10;100619.09;;;23.96;34.99
51315;BME280;65787;59.922;10.742;2023-08-24T05:08:35;100613.63;;;23.96;35.13
51315;BME280;65787;59.922;10.742;2023-08-24T05:11:01;100614.16;;;23.93;35.02
51315;BME280;65787;59.922;10.742;2023-08-24T05:13:26;100610.34;;;23.89;34.98
51315;BME280;65787;59.922;10.742;2023-08-24T05:15:51;100613.13;;;23.53;36.10
51315;BME280;65787;59.922;10.742;2023-08-24T05:18:17;100629.06;;;23.41;36.55
51315;BME280;65787;59.922;10.742;2023-08-24T05:20:42;100612.84;;;23.49;36.43
51315;BME280;65787;59.922;10.742;2023-08-24T05:23:07;100613.94;;;23.64;36.48
51315;BME280;65787;59.922;10.742;2023-08-24T05:25:33;100603.22;;;23.77;36.52
51315;BME280;65787;59.922;10.742;2023-08-24T05:27:59;100607.59;;;23.89;35.91
51315;BME280;65787;59.922;10.742;2023-08-24T05:30:24;100607.53;;;24.04;35.92
51315;BME280;65787;59.922;10.742;2023-08-24T05:32:50;100602.03;;;24.09;35.49
51315;BME280;65787;59.922;10.742;2023-08-24T05:35:15;100603.09;;;24.19;35.26
51315;BME280;65787;59.922;10.742;2023-08-24T05:37:40;100601.94;;;24.30;35.03
51315;BME280;65787;59.922;10.742;2023-08-24T05:40:06;100596.91;;;24.42;34.95
51315;BME280;65787;59.922;10.742;2023-08-24T05:42:31;100602.38;;;24.47;34.73
51315;BME280;65787;59.922;10.742;2023-08-24T05:44:57;100606.50;;;24.55;34.70
51315;BME280;65787;59.922;10.742;2023-08-24T05:47:22;100606.19;;;24.62;34.71
51315;BME280;65787;59.922;10.742;2023-08-24T05:49:47;100613.28;;;24.68;34.22
51315;BME280;65787;59.922;10.742;2023-08-24T05:52:13;100603.34;;;24.72;34.50
51315;BME280;65787;59.922;10.742;2023-08-24T05:54:41;100609.34;;;24.79;33.96
51315;BME280;65787;59.922;10.742;2023-08-24T05:57:06;100614.84;;;24.79;34.31
51315;BME280;65787;59.922;10.742;2023-08-24T05:59:32;100612.88;;;24.85;34.33
51315;BME280;65787;59.922;10.742;2023-08-24T06:01:58;100606.56;;;24.84;34.12
51315;BME280;65787;59.922;10.742;2023-08-24T06:04:23;100603.00;;;24.89;34.17
51315;BME280;65787;59.922;10.742;2023-08-24T06:06:48;100605.97;;;24.92;34.27
51315;BME280;65787;59.922;10.742;2023-08-24T06:09:14;100596.31;;;25.00;34.08
51315;BME280;65787;59.922;10.742;2023-08-24T06:11:42;100602.84;;;25.04;33.99
51315;BME280;65787;59.922;10.742;2023-08-24T06:14:07;100599.53;;;25.07;33.81
51315;BME280;65787;59.922;10.742;2023-08-24T06:16:32;100601.13;;;25.14;33.84
51315;BME280;65787;59.922;10.742;2023-08-24T06:19:00;100608.22;;;25.20;33.76
51315;BME280;65787;59.922;10.742;2023-08-24T06:21:25;100607.66;;;25.23;33.75
51315;BME280;65787;59.922;10.742;2023-08-24T06:23:50;100613.97;;;25.28;33.68
51315;BME280;65787;59.922;10.742;2023-08-24T06:26:16;100619.97;;;25.30;33.73
51315;BME280;65787;59.922;10.742;2023-08-24T06:28:42;100620.47;;;25.38;33.44
51315;BME280;65787;59.922;10.742;2023-08-24T06:31:07;100611.94;;;25.39;33.63
51315;BME280;65787;59.922;10.742;2023-08-24T06:33:33;100612.72;;;25.45;33.38
51315;BME280;65787;59.922;10.742;2023-08-24T06:35:58;100620.59;;;25.52;33.49
51315;BME280;65787;59.922;10.742;2023-08-24T06:38:23;100614.81;;;25.53;32.86
51315;BME280;65787;59.922;10.742;2023-08-24T06:40:49;100612.50;;;25.65;33.07
51315;BME280;65787;59.922;10.742;2023-08-24T06:43:14;100614.53;;;25.79;33.17
51315;BME280;65787;59.922;10.742;2023-08-24T06:45:40;100615.16;;;26.00;33.13
51315;BME280;65787;59.922;10.742;2023-08-24T06:48:05;100621.81;;;26.18;32.98
51315;BME280;65787;59.922;10.742;2023-08-24T06:50:32;100620.97;;;26.41;32.85
51315;BME280;65787;59.922;10.742;2023-08-24T06:52:57;100619.72;;;26.53;32.40
51315;BME280;65787;59.922;10.742;2023-08-24T06:55:22;100621.41;;;26.73;32.26
51315;BME280;65787;59.922;10.742;2023-08-24T06:57:48;100616.22;;;26.85;31.97
51315;BME280;65787;59.922;10.742;2023-08-24T07:00:14;100615.38;;;27.03;31.55
51315;BME280;65787;59.922;10.742;2023-08-24T07:02:40;100626.25;;;27.14;31.53
51315;BME280;65787;59.922;10.742;2023-08-24T07:05:05;100622.81;;;27.22;30.78
51315;BME280;65787;59.922;10.742;2023-08-24T07:07:33;100616.09;;;27.28;31.15
51315;BME280;65787;59.922;10.742;2023-08-24T07:09:58;100628.19;;;27.46;31.37
51315;BME280;65787;59.922;10.742;2023-08-24T07:12:23;100625.78;;;27.58;31.05
51315;BME280;65787;59.922;10.742;2023-08-24T07:14:49;100626.28;;;27.74;30.77
51315;BME280;65787;59.922;10.742;2023-08-24T07:17:14;100623.16;;;27.81;30.53
51315;BME280;65787;59.922;10.742;2023-08-24T07:19:39;100621.53;;;27.94;30.44
51315;BME280;65787;59.922;10.742;2023-08-24T07:22:04;100623.78;;;28.06;30.00
51315;BME280;65787;59.922;10.742;2023-08-24T07:24:30;100617.63;;;28.23;30.09
51315;BME280;65787;59.922;10.742;2023-08-24T07:26:55;100623.84;;;28.28;29.47
51315;BME280;65787;59.922;10.742;2023-08-24T07:29:21;100632.25;;;28.37;29.44
51315;BME280;65787;59.922;10.742;2023-08-24T07:31:46;100638.16;;;28.44;29.47
51315;BME280;65787;59.922;10.742;2023-08-24T07:34:11;100633.78;;;28.57;29.02
51315;BME280;65787;59.922;10.742;2023-08-24T07:36:37;100629.56;;;28.60;28.74
51315;BME280;65787;59.922;10.742;2023-08-24T07:39:02;100629.84;;;28.72;29.37
51315;BME280;65787;59.922;10.742;2023-08-24T07:41:27;100625.41;;;28.85;28.91
51315;BME280;65787;59.922;10.742;2023-08-24T07:43:52;100629.25;;;28.98;29.43
51315;BME280;65787;59.922;10.742;2023-08-24T07:46:18;100638.72;;;29.05;28.82
51315;BME280;65787;59.922;10.742;2023-08-24T07:48:43;100637.72;;;29.01;28.36
51315;BME280;65787;59.922;10.742;2023-08-24T07:51:08;100639.22;;;29.07;28.27
51315;BME280;65787;59.922;10.742;2023-08-24T07:53:34;100640.34;;;29.06;27.52
51315;BME280;65787;59.922;10.742;2023-08-24T07:55:59;100647.53;;;29.07;27.47
51315;BME280;65787;59.922;10.742;2023-08-24T07:58:26;100643.59;;;29.08;27.15
51315;BME280;65787;59.922;10.742;2023-08-24T08:00:52;100644.25;;;29.05;27.29
51315;BME280;65787;59.922;10.742;2023-08-24T08:03:18;100640.91;;;28.94;27.21
51315;BME280;65787;59.922;10.742;2023-08-24T08:05:43;100645.59;;;28.71;27.41
51315;BME280;65787;59.922;10.742;2023-08-24T08:08:08;100644.72;;;28.62;27.61
51315;BME280;65787;59.922;10.742;2023-08-24T08:10:33;100648.41;;;28.44;27.32
51315;BME280;65787;59.922;10.742;2023-08-24T08:12:59;100642.88;;;28.30;27.58
51315;BME280;65787;59.922;10.742;2023-08-24T08:15:24;100649.72;;;28.32;27.87
51315;BME280;65787;59.922;10.742;2023-08-24T08:17:49;100641.75;;;28.45;28.59
51315;BME280;65787;59.922;10.742;2023-08-24T08:20:14;100651.88;;;28.49;28.45
51315;BME280;65787;59.922;10.742;2023-08-24T08:22:40;100656.50;;;28.54;28.59
51315;BME280;65787;59.922;10.742;2023-08-24T08:25:06;100663.63;;;28.41;27.86
51315;BME280;65787;59.922;10.742;2023-08-24T08:27:31;100656.59;;;28.35;27.74
51315;BME280;65787;59.922;10.742;2023-08-24T08:29:58;100651.06;;;28.35;28.25
51315;BME280;65787;59.922;10.742;2023-08-24T08:32:23;100647.25;;;28.45;28.38
51315;BME280;65787;59.922;10.742;2023-08-24T08:34:52;100647.50;;;28.34;27.95
51315;BME280;65787;59.922;10.742;2023-08-24T08:37:17;100648.31;;;28.21;28.14
51315;BME280;65787;59.922;10.742;2023-08-24T08:39:42;100650.47;;;28.24;28.24
51315;BME280;65787;59.922;10.742;2023-08-24T08:42:13;100647.94;;;28.14;28.48
51315;BME280;65787;59.922;10.742;2023-08-24T08:44:38;100652.31;;;28.15;28.53
51315;BME280;65787;59.922;10.742;2023-08-24T08:47:04;100648.63;;;28.33;28.68
51315;BME280;65787;59.922;10.742;2023-08-24T08:49:32;100655.03;;;28.43;28.87
51315;BME280;65787;59.922;10.742;2023-08-24T08:51:58;100654.53;;;28.41;28.33
51315;BME280;65787;59.922;10.742;2023-08-24T08:54:23;100662.13;;;28.35;28.09
51315;BME280;65787;59.922;10.742;2023-08-24T08:56:49;100645.94;;;28.42;28.12
51315;BME280;65787;59.922;10.742;2023-08-24T08:59:14;100649.53;;;28.43;27.50
51315;BME280;65787;59.922;10.742;2023-08-24T09:01:40;100646.34;;;28.49;27.91
51315;BME280;65787;59.922;10.742;2023-08-24T09:04:06;100652.69;;;28.64;28.00
51315;BME280;65787;59.922;10.742;2023-08-24T09:06:32;100651.31;;;28.75;28.22
51315;BME280;65787;59.922;10.742;2023-08-24T09:08:59;100651.16;;;28.94;27.96
51315;BME280;65787;59.922;10.742;2023-08-24T09:11:25;100661.28;;;28.99;27.75
51315;BME280;65787;59.922;10.742;2023-08-24T09:13:50;100655.63;;;29.04;28.23
51315;BME280;65787;59.922;10.742;2023-08-24T09:16:16;100662.03;;;29.13;27.95
51315;BME280;65787;59.922;10.742;2023-08-24T09:18:51;100660.19;;;29.22;27.32
51315;BME280;65787;59.922;10.742;2023-08-24T09:21:16;100653.56;;;29.32;27.58
51315;BME280;65787;59.922;10.742;2023-08-24T09:23:45;100655.84;;;29.30;27.38
51315;BME280;65787;59.922;10.742;2023-08-24T09:26:11;100647.78;;;29.42;27.66
51315;BME280;65787;59.922;10.742;2023-08-24T09:28:37;100654.03;;;29.57;27.13
51315;BME280;65787;59.922;10.742;2023-08-24T09:31:04;100651.75;;;29.50;27.43
51315;BME280;65787;59.922;10.742;2023-08-24T09:33:29;100656.59;;;29.44;26.97
51315;BME280;65787;59.922;10.742;2023-08-24T09:35:55;100655.22;;;29.33;27.13
51315;BME280;65787;59.922;10.742;2023-08-24T09:38:26;100657.84;;;29.15;27.13
51315;BME280;65787;59.922;10.742;2023-08-24T09:40:52;100644.44;;;29.09;27.70
51315;BME280;65787;59.922;10.742;2023-08-24T09:43:18;100648.22;;;29.13;26.83
51315;BME280;65787;59.922;10.742;2023-08-24T09:45:50;100647.63;;;29.16;27.50
51315;BME280;65787;59.922;10.742;2023-08-24T09:48:15;100641.22;;;29.38;27.34
51315;BME280;65787;59.922;10.742;2023-08-24T09:50:47;100650.28;;;29.52;26.78
51315;BME280;65787;59.922;10.742;2023-08-24T09:53:15;100654.09;;;29.65;27.13
51315;BME280;65787;59.922;10.742;2023-08-24T09:55:40;100646.78;;;29.69;27.22
51315;BME280;65787;59.922;10.742;2023-08-24T09:58:08;100646.22;;;29.81;27.34
51315;BME280;65787;59.922;10.742;2023-08-24T10:00:34;100649.31;;;29.80;26.96
51315;BME280;65787;59.922;10.742;2023-08-24T10:03:00;100644.81;;;30.01;26.29
51315;BME280;65787;59.922;10.742;2023-08-24T10:05:26;100651.38;;;30.14;26.62
51315;BME280;65787;59.922;10.742;2023-08-24T10:07:53;100649.03;;;30.39;26.68
51315;BME280;65787;59.922;10.742;2023-08-24T10:10:20;100648.75;;;30.75;26.78
51315;BME280;65787;59.922;10.742;2023-08-24T10:12:47;100640.28;;;30.98;26.40
51315;BME280;65787;59.922;10.742;2023-08-24T10:15:15;100640.91;;;31.21;26.17
51315;BME280;65787;59.922;10.742;2023-08-24T10:17:42;100634.53;;;31.29;25.50
51315;BME280;65787;59.922;10.742;2023-08-24T10:20:09;100629.94;;;31.33;25.67
51315;BME280;65787;59.922;10.742;2023-08-24T10:22:35;100635.53;;;31.16;25.14
51315;BME280;65787;59.922;10.742;2023-08-24T10:25:01;100641.25;;;31.28;24.62
51315;BME280;65787;59.922;10.742;2023-08-24T10:27:27;100643.16;;;31.36;25.11
51315;BME280;65787;59.922;10.742;2023-08-24T10:29:52;100639.56;;;31.44;24.84
51315;BME280;65787;59.922;10.742;2023-08-24T10:32:19;100632.16;;;31.66;24.83
51315;BME280;65787;59.922;10.742;2023-08-24T10:34:44;100643.22;;;31.83;24.61
51315;BME280;65787;59.922;10.742;2023-08-24T10:37:10;100629.09;;;31.97;25.00
51315;BME280;65787;59.922;10.742;2023-08-24T10:39:54;100627.22;;;32.19;25.05
51315;BME280;65787;59.922;10.742;2023-08-24T10:42:19;100642.69;;;32.29;24.52
51315;BME280;65787;59.922;10.742;2023-08-24T10:44:46;100634.16;;;32.04;24.60
51315;BME280;65787;59.922;10.742;2023-08-24T10:47:13;100637.75;;;32.34;24.13
51315;BME280;65787;59.922;10.742;2023-08-24T10:49:41;100631.91;;;32.48;24.01
51315;BME280;65787;59.922;10.742;2023-08-24T10:52:16;100625.19;;;32.58;23.96
51315;BME280;65787;59.922;10.742;2023-08-24T10:54:43;100623.03;;;32.76;23.63
51315;BME280;65787;59.922;10.742;2023-08-24T10:57:10;100622.00;;;33.02;24.37
51315;BME280;65787;59.922;10.742;2023-08-24T10:59:42;100619.56;;;33.33;23.44
51315;BME280;65787;59.922;10.742;2023-08-24T11:02:08;100629.72;;;33.63;23.45
51315;BME280;65787;59.922;10.742;2023-08-24T11:05:02;100624.53;;;33.98;23.01
51315;BME280;65787;59.922;10.742;2023-08-24T11:07:27;100623.28;;;33.83;22.33
51315;BME280;65787;59.922;10.742;2023-08-24T11:09:56;100621.53;;;33.91;22.27
51315;BME280;65787;59.922;10.742;2023-08-24T11:12:21;100625.47;;;34.14;22.94
51315;BME280;65787;59.922;10.742;2023-08-24T11:14:50;100617.94;;;34.27;22.21
51315;BME280;65787;59.922;10.742;2023-08-24T11:17:24;100615.81;;;34.37;22.14
51315;BME280;65787;59.922;10.742;2023-08-24T11:19:50;100614.38;;;34.55;21.78
51315;BME280;65787;59.922;10.742;2023-08-24T11:22:16;100613.16;;;34.81;21.99
51315;BME280;65787;59.922;10.742;2023-08-24T11:24:42;100615.09;;;34.93;21.61
51315;BME280;65787;59.922;10.742;2023-08-24T11:27:07;100613.16;;;35.09;22.04
51315;BME280;65787;59.922;10.742;2023-08-24T11:29:33;100614.03;;;35.25;21.83
51315;BME280;65787;59.922;10.742;2023-08-24T11:31:59;100602.94;;;35.45;21.47
51315;BME280;65787;59.922;10.742;2023-08-24T11:34:24;100603.72;;;35.74;21.27
51315;BME280;65787;59.922;10.742;2023-08-24T11:36:49;100605.94;;;36.00;21.69
51315;BME280;65787;59.922;10.742;2023-08-24T11:39:19;100609.31;;;36.25;21.16
51315;BME280;65787;59.922;10.742;2023-08-24T11:42:06;100599.31;;;36.43;20.78
51315;BME280;65787;59.922;10.742;2023-08-24T11:44:46;100607.31;;;36.61;20.63
51315;BME280;65787;59.922;10.742;2023-08-24T11:47:12;100607.31;;;36.61;19.82
51315;BME280;65787;59.922;10.742;2023-08-24T11:49:37;100601.41;;;36.66;20.41
51315;BME280;65787;59.922;10.742;2023-08-24T11:52:02;100598.25;;;36.87;19.38
51315;BME280;65787;59.922;10.742;2023-08-24T11:54:28;100586.28;;;36.90;19.30
51315;BME280;65787;59.922;10.742;2023-08-24T11:56:53;100585.63;;;37.16;19.54
51315;BME280;65787;59.922;10.742;2023-08-24T11:59:18;100589.16;;;37.36;18.63
51315;BME280;65787;59.922;10.742;2023-08-24T12:01:44;100582.25;;;37.53;19.23
51315;BME280;65787;59.922;10.742;2023-08-24T12:04:10;100584.53;;;37.67;18.67
51315;BME280;65787;59.922;10.742;2023-08-24T12:06:35;100585.25;;;37.87;18.50
51315;BME280;65787;59.922;10.742;2023-08-24T12:09:04;100588.13;;;37.94;18.25
51315;BME280;65787;59.922;10.742;2023-08-24T12:11:29;100583.97;;;37.85;18.67
51315;BME280;65787;59.922;10.742;2023-08-24T12:13:59;100589.81;;;37.99;18.10
51315;BME280;65787;59.922;10.742;2023-08-24T12:16:25;100586.53;;;38.20;18.30
51315;BME280;65787;59.922;10.742;2023-08-24T12:18:57;100578.84;;;38.13;18.74
51315;BME280;65787;59.922;10.742;2023-08-24T12:21:24;100579.72;;;38.21;18.99
51315;BME280;65787;59.922;10.742;2023-08-24T12:23:56;100584.94;;;38.53;18.29
51315;BME280;65787;59.922;10.742;2023-08-24T12:26:22;100574.09;;;38.85;17.93
51315;BME280;65787;59.922;10.742;2023-08-24T12:28:51;100587.72;;;38.83;17.31
51315;BME280;65787;59.922;10.742;2023-08-24T12:31:17;100586.59;;;38.88;17.04
51315;BME280;65787;59.922;10.742;2023-08-24T12:33:42;100572.66;;;38.99;17.17
51315;BME280;65787;59.922;10.742;2023-08-24T12:36:09;100580.25;;;39.36;16.20
51315;BME280;65787;59.922;10.742;2023-08-24T12:38:34;100586.69;;;39.84;17.11
51315;BME280;65787;59.922;10.742;2023-08-24T12:41:00;100580.91;;;40.22;16.48